Terminal Aerodrome Forecast
Issued by NWS Wilmington, OH

Current Version | Previous Version | Graphics & Text | Print | Product List | Glossary On
Versions: 1 2 3 4 5 6 7 8 9 10 11 12 13 14 15 16 17 18
414
FTUS41 KILN 030838 AAA
TAFCMH
TAF AMD
KCMH 030838Z 0309/0406 19015G23KT P6SM -SHRA OVC050
      TEMPO 0309/0311 3SM -SHRA BR OVC025
     FM031300 22014G24KT P6SM BKN025
     FM031700 24018G30KT P6SM BKN035=

USA.gov is the U.S. government's official web portal to all federal, state and local government web resources and services.